Time;durP1;ratioP1;P1;durP2;ratioP2;P2;SDS_P1;SDS_P2;PMS_P1;PMS_P2;Temp;Humidity;BMP_temperature;BMP_pressure;BME280_temperature;BME280_humidity;BME280_pressure;Samples;Min_cycle;Max_cycle;Signal;HPM_P1;HPM_P2
2021/10/04 05:00:29;;;;;;;7.70;6.90;;;;;;;5.16;94.00;95588.25;6084755;23;20021;31
2021/10/04 05:02:54;;;;;;;9.82;6.55;;;;;;;5.44;92.60;95587.69;4967651;28;20058;-74
2021/10/04 05:05:20;;;;;;;7.97;6.88;;;;;;;5.69;91.85;95591.63;4969851;28;20097;-75
2021/10/04 05:07:46;;;;;;;15.27;7.25;;;;;;;6.26;89.67;95593.75;4969872;28;20102;-73
2021/10/04 05:10:11;;;;;;;46.55;9.38;;;;;;;7.52;85.39;95577.59;4953320;28;20031;-73
2021/10/04 05:12:37;;;;;;;18.60;7.28;;;;;;;8.97;76.96;95570.09;4967849;28;20031;-73
2021/10/04 05:15:03;;;;;;;9.45;6.63;;;;;;;9.22;76.02;95580.66;4953568;28;20408;-75
2021/10/04 05:17:28;;;;;;;14.77;6.10;;;;;;;10.07;73.42;95583.50;4952032;28;20495;-75
2021/10/04 05:19:54;;;;;;;6.18;5.53;;;;;;;10.51;71.59;95571.31;4969316;28;20026;-75
2021/10/04 05:22:19;;;;;;;6.65;5.05;;;;;;;11.21;69.27;95575.25;4969051;28;20086;-76
2021/10/04 05:24:45;;;;;;;6.50;5.88;;;;;;;10.81;67.57;95575.97;4968759;28;20425;-73
2021/10/04 05:27:10;;;;;;;12.07;5.32;;;;;;;11.52;68.34;95571.13;4970648;28;20027;-73
2021/10/04 05:29:38;;;;;;;8.00;5.65;;;;;;;12.31;65.05;95569.63;4951692;28;20026;-75
2021/10/04 05:32:04;;;;;;;7.93;7.18;;;;;;;13.79;60.33;95560.75;4970433;28;20404;-75
2021/10/04 05:34:30;;;;;;;19.35;8.65;;;;;;;16.93;51.11;95548.69;4967316;28;20023;-75
2021/10/04 05:36:55;;;;;;;7.90;7.15;;;;;;;17.70;48.25;95554.38;4953012;28;20023;-75
2021/10/04 05:39:21;;;;;;;11.48;7.13;;;;;;;18.40;46.88;95546.72;4967497;28;20038;-76
2021/10/04 05:41:46;;;;;;;10.23;7.47;;;;;;;19.16;44.48;95554.00;4968919;28;20143;-73
2021/10/04 05:44:12;;;;;;;15.48;8.40;;;;;;;19.13;45.08;95554.44;4967881;28;20066;-77
2021/10/04 05:46:37;;;;;;;13.75;9.40;;;;;;;19.98;43.66;95546.06;4967859;28;20086;-74
2021/10/04 05:49:03;;;;;;;12.55;11.13;;;;;;;19.97;42.92;95541.84;4968802;28;20035;-74
2021/10/04 05:51:28;;;;;;;16.38;10.48;;;;;;;20.46;41.40;95544.47;4951062;28;20031;-74
2021/10/04 05:53:54;;;;;;;8.68;6.72;;;;;;;20.16;43.62;95548.78;4968734;28;20026;-74
2021/10/04 05:56:19;;;;;;;5.03;4.72;;;;;;;20.06;44.07;95556.34;4968606;28;20034;-74
2021/10/04 05:58:44;;;;;;;4.90;3.85;;;;;;;20.27;43.82;95550.72;4966996;28;20059;-74
2021/10/04 06:01:10;;;;;;;3.47;3.28;;;;;;;20.46;43.62;95556.81;4949278;28;20071;-74
2021/10/04 06:03:35;;;;;;;4.90;4.50;;;;;;;20.94;42.06;95549.03;4967410;28;20023;-74
2021/10/04 06:06:01;;;;;;;3.83;3.53;;;;;;;21.09;41.42;95554.78;4966572;28;20035;-74
2021/10/04 06:08:26;;;;;;;4.80;4.35;;;;;;;22.15;39.07;95557.59;4968247;28;20026;-74
2021/10/04 06:10:52;;;;;;;3.88;3.58;;;;;;;22.43;38.24;95556.94;4969684;28;20027;-76
2021/10/04 06:13:17;;;;;;;5.45;3.58;;;;;;;21.89;39.14;95565.91;4950582;28;20027;-74
2021/10/04 06:15:45;;;;;;;3.92;3.58;;;;;;;23.11;37.09;95559.78;4969556;28;20102;-76
2021/10/04 06:18:12;;;;;;;4.22;3.92;;;;;;;23.08;37.21;95571.63;4982950;28;20077;-73
2021/10/04 06:20:40;;;;;;;6.13;3.97;;;;;;;23.21;37.20;95564.47;4968055;28;20022;-73
2021/10/04 06:23:06;;;;;;;3.92;3.40;;;;;;;23.98;35.56;95565.69;4968914;28;20408;-76
2021/10/04 06:25:33;;;;;;;3.58;3.28;;;;;;;24.37;35.20;95566.63;4967193;28;20194;-76
2021/10/04 06:27:58;;;;;;;4.07;2.95;;;;;;;24.77;33.40;95566.41;4969502;28;20544;-77
2021/10/04 06:30:24;;;;;;;4.40;3.17;;;;;;;25.27;32.96;95572.41;4967939;28;20050;-75
2021/10/04 06:32:50;;;;;;;3.42;3.22;;;;;;;24.80;34.63;95581.81;4952193;28;20034;-75
2021/10/04 06:35:15;;;;;;;3.38;3.00;;;;;;;25.04;33.40;95575.31;4950856;28;20035;-75
2021/10/04 06:37:41;;;;;;;5.43;3.30;;;;;;;26.20;31.97;95581.94;4969132;28;20026;-76
2021/10/04 06:40:07;;;;;;;5.40;3.25;;;;;;;25.60;32.53;95574.97;4968131;28;20030;-75
2021/10/04 06:42:32;;;;;;;3.35;3.05;;;;;;;26.76;31.01;95577.06;4969267;28;20023;-75
2021/10/04 06:44:58;;;;;;;5.93;3.22;;;;;;;26.45;31.46;95587.50;4968710;28;20062;-76
2021/10/04 06:47:24;;;;;;;4.47;3.40;;;;;;;27.32;30.53;95581.69;4968179;28;20027;-75
2021/10/04 06:49:49;;;;;;;3.83;3.53;;;;;;;25.97;31.88;95568.97;4969296;28;20027;-76
2021/10/04 06:52:14;;;;;;;3.38;2.60;;;;;;;26.71;30.57;95589.25;4950785;28;20115;-76
2021/10/04 06:54:40;;;;;;;2.70;2.17;;;;;;;26.53;30.28;95583.53;4967879;28;20030;-75
2021/10/04 06:57:05;;;;;;;3.72;2.42;;;;;;;26.68;30.25;95584.44;4967689;28;20038;-75
2021/10/04 06:59:32;;;;;;;4.75;2.45;;;;;;;27.32;29.23;95584.34;4970425;28;20389;-75
2021/10/04 07:01:58;;;;;;;4.15;2.30;;;;;;;26.30;30.65;95583.91;4970840;28;20066;-73
2021/10/04 07:04:23;;;;;;;2.47;2.28;;;;;;;27.60;29.00;95583.13;4955165;28;20035;-73
2021/10/04 07:06:49;;;;;;;2.63;2.42;;;;;;;27.69;28.99;95581.56;4971402;28;20027;-73
2021/10/04 07:09:14;;;;;;;2.70;2.50;;;;;;;28.30;28.73;95587.03;4970213;28;20033;-72
2021/10/04 07:11:40;;;;;;;2.80;2.42;;;;;;;27.35;29.76;95580.34;4971734;28;20027;-73
2021/10/04 07:14:06;;;;;;;3.25;2.22;;;;;;;27.31;29.71;95579.25;4969870;28;20508;-73
2021/10/04 07:16:31;;;;;;;2.42;2.22;;;;;;;27.40;29.49;95575.03;4955959;28;20027;-75
2021/10/04 07:18:57;;;;;;;2.20;2.03;;;;;;;27.45;29.27;95575.09;4969709;28;20455;-75
2021/10/04 07:21:22;;;;;;;3.92;2.30;;;;;;;27.59;29.17;95570.88;4971621;28;20058;-75
2021/10/04 07:23:48;;;;;;;2.72;2.50;;;;;;;26.00;30.81;95565.81;4972126;28;20027;-74
2021/10/04 07:26:13;;;;;;;3.60;2.40;;;;;;;18.13;43.46;95573.19;4970233;28;20034;-74
2021/10/04 07:28:39;;;;;;;3.92;2.33;;;;;;;19.53;43.65;95576.09;4955481;28;20031;-74
2021/10/04 07:31:04;;;;;;;4.85;2.45;;;;;;;20.19;42.38;95579.91;4969735;28;20026;-75
2021/10/04 07:33:30;;;;;;;3.83;2.15;;;;;;;20.40;41.26;95578.75;4971405;28;20023;-75
2021/10/04 07:35:55;;;;;;;13.30;4.20;;;;;;;20.42;41.29;95571.47;4969294;28;20408;-74
2021/10/04 07:38:22;;;;;;;4.45;2.45;;;;;;;18.60;45.16;95582.63;4972640;28;20023;-74
2021/10/04 07:40:47;;;;;;;3.45;2.58;;;;;;;19.03;44.54;95581.13;4969722;28;20032;-75
2021/10/04 07:43:13;;;;;;;2.60;2.40;;;;;;;19.30;45.12;95572.13;4970558;28;20511;-75
2021/10/04 07:45:38;;;;;;;2.72;2.22;;;;;;;19.54;43.35;95572.44;4970898;28;20038;-75
2021/10/04 07:48:04;;;;;;;29.50;3.17;;;;;;;18.77;44.82;95566.28;4971023;28;20568;-76
2021/10/04 07:50:30;;;;;;;3.72;2.45;;;;;;;19.36;42.75;95558.16;4954981;28;20062;-76
2021/10/04 07:52:55;;;;;;;3.45;2.35;;;;;;;19.50;43.97;95568.63;4969349;28;20465;-76
2021/10/04 07:55:22;;;;;;;2.65;2.45;;;;;;;19.80;42.59;95559.97;4970770;28;20795;-75
2021/10/04 07:57:48;;;;;;;2.95;2.47;;;;;;;19.28;43.00;95558.41;4969536;28;20452;-75
2021/10/04 08:00:15;;;;;;;7.45;2.53;;;;;;;19.63;43.51;95556.22;4971747;28;20030;-75
2021/10/04 08:02:40;;;;;;;2.75;2.53;;;;;;;19.35;45.21;95556.56;4954036;28;20512;-75
2021/10/04 08:05:06;;;;;;;4.30;2.63;;;;;;;19.61;44.11;95557.47;4970670;28;20058;-75
2021/10/04 08:07:31;;;;;;;14.70;2.85;;;;;;;19.15;45.66;95552.41;4971559;28;20038;-75
2021/10/04 08:09:57;;;;;;;73.20;5.18;;;;;;;19.52;44.56;95556.09;4968720;28;20558;-75
2021/10/04 08:12:25;;;;;;;3.03;2.72;;;;;;;20.46;42.02;95544.47;4954133;28;20054;-75
2021/10/04 08:14:51;;;;;;;5.47;2.50;;;;;;;19.94;43.45;95545.69;4969129;28;20058;-76
2021/10/04 08:17:16;;;;;;;3.22;2.40;;;;;;;19.88;43.05;95543.09;4970621;28;20019;-75
2021/10/04 08:19:42;;;;;;;3.72;2.60;;;;;;;20.32;42.97;95553.53;4970810;28;20485;-75
2021/10/04 08:22:07;;;;;;;153.20;7.32;;;;;;;20.30;42.79;95549.47;4971061;28;20023;-75
2021/10/04 08:24:33;;;;;;;4.75;2.70;;;;;;;19.57;43.95;95543.13;4969925;28;20035;-75
2021/10/04 08:26:58;;;;;;;4.70;2.53;;;;;;;20.09;44.04;95540.13;4970440;28;20477;-75
2021/10/04 08:29:24;;;;;;;153.00;6.93;;;;;;;19.90;43.77;95538.47;4969843;28;20031;-75
2021/10/04 08:31:49;;;;;;;5.43;2.45;;;;;;;20.28;42.68;95536.56;4969838;28;20030;-75
2021/10/04 08:34:15;;;;;;;5.60;2.80;;;;;;;20.27;43.46;95540.19;4971203;28;20053;-75
2021/10/04 08:36:40;;;;;;;3.20;2.90;;;;;;;20.80;41.54;95529.16;4970160;28;20038;-75
2021/10/04 08:39:06;;;;;;;259.70;15.68;;;;;;;20.26;42.23;95524.59;4970157;28;20155;-75
2021/10/04 08:41:33;;;;;;;5.55;2.63;;;;;;;20.61;43.35;95520.44;4953355;28;20551;-76
2021/10/04 08:44:02;;;;;;;4.95;2.67;;;;;;;21.61;41.21;95516.38;4969985;28;20423;-74
2021/10/04 08:46:27;;;;;;;36.85;3.95;;;;;;;20.51;41.68;95517.50;4954550;28;20031;-74
2021/10/04 08:48:53;;;;;;;3.97;2.92;;;;;;;22.04;39.64;95510.88;4968278;28;20510;-75
2021/10/04 08:51:18;;;;;;;4.57;2.03;;;;;;;21.01;41.92;95512.88;4971107;28;20499;-73
2021/10/04 08:53:45;;;;;;;81.75;5.32;;;;;;;21.66;39.78;95513.06;4952012;28;20095;-73
2021/10/04 08:56:10;;;;;;;8.02;2.50;;;;;;;21.72;38.80;95507.69;4970706;28;20089;-73
2021/10/04 08:58:36;;;;;;;84.13;6.07;;;;;;;21.44;40.15;95504.88;4970063;28;20027;-73
2021/10/04 09:01:03;;;;;;;6.68;3.10;;;;;;;21.80;40.14;95494.16;4969349;28;20038;-73
2021/10/04 09:03:49;;;;;;;3.85;2.40;;;;;;;21.90;38.78;95502.38;4969482;28;20030;-74
2021/10/04 09:06:37;;;;;;;4.35;2.60;;;;;;;22.77;38.03;95497.22;4968637;28;20086;-78
2021/10/04 09:09:04;;;;;;;3.65;2.40;;;;;;;22.93;37.97;95499.13;4953297;28;20034;-76
2021/10/04 09:11:39;;;;;;;7.03;2.88;;;;;;;22.80;37.99;95508.13;4936375;28;20058;-74
2021/10/04 09:14:29;;;;;;;4.10;2.40;;;;;;;22.60;37.71;95507.69;4968761;28;20023;-74
2021/10/04 09:17:01;;;;;;;5.88;2.55;;;;;;;22.36;38.36;95498.97;4953518;28;20027;-73
2021/10/04 09:19:30;;;;;;;47.38;4.13;;;;;;;22.50;39.25;95496.91;4967647;28;20392;-73
2021/10/04 09:22:13;;;;;;;5.18;2.85;;;;;;;22.38;38.35;95491.59;4969193;28;20410;-74
2021/10/04 09:24:48;;;;;;;4.07;2.60;;;;;;;23.47;38.17;95488.03;4952851;28;20551;-76
2021/10/04 09:27:32;;;;;;;4.10;2.70;;;;;;;23.59;36.97;95488.00;4969400;28;20453;-76
2021/10/04 09:30:10;;;;;;;48.83;4.13;;;;;;;23.33;37.02;95497.28;4969252;28;20053;-76
2021/10/04 09:32:45;;;;;;;14.35;3.90;;;;;;;23.61;35.97;95486.72;4967664;28;20503;-76
2021/10/04 09:35:26;;;;;;;5.85;2.70;;;;;;;22.98;37.38;95478.09;4968885;28;20085;-76
2021/10/04 09:38:16;;;;;;;7.50;2.40;;;;;;;23.81;36.19;95480.16;4970135;28;20031;-76
2021/10/04 09:40:46;;;;;;;2.50;2.28;;;;;;;23.48;35.93;95459.75;4968510;28;20034;-76
2021/10/04 09:43:28;;;;;;;33.75;3.65;;;;;;;23.56;36.21;95470.78;4969123;28;20027;-76
2021/10/04 09:46:01;;;;;;;4.38;2.70;;;;;;;23.39;35.77;95469.91;4952105;28;20181;-76
2021/10/04 09:48:27;;;;;;;41.88;3.72;;;;;;;23.40;36.09;95463.59;4952665;28;20492;-76
2021/10/04 09:50:52;;;;;;;261.35;13.50;;;;;;;23.47;35.92;95461.59;4968574;28;20058;-76
2021/10/04 09:53:18;;;;;;;127.15;7.72;;;;;;;23.21;36.27;95446.31;4951073;28;20097;-75
2021/10/04 09:55:44;;;;;;;27.98;3.47;;;;;;;23.96;35.76;95457.38;4968574;28;20064;-76
2021/10/04 09:58:16;;;;;;;1946.88;92.53;;;;;;;22.68;35.71;95461.63;4950970;28;20027;-75
2021/10/04 10:00:52;;;;;;;37.55;4.40;;;;;;;23.65;35.42;95454.50;4969848;28;20037;-75
2021/10/04 10:03:19;;;;;;;5.43;2.85;;;;;;;23.87;34.74;95444.78;4970532;28;20116;-76
2021/10/04 10:05:53;;;;;;;7.90;2.67;;;;;;;23.79;34.94;95450.50;4970899;28;20516;-76
2021/10/04 10:08:21;;;;;;;5.20;2.80;;;;;;;22.22;37.17;95444.78;4956592;28;20033;-76
2021/10/04 10:10:46;;;;;;;4.28;2.53;;;;;;;23.39;35.88;95442.66;4955055;28;20404;-76
2021/10/04 10:13:17;;;;;;;36.50;3.97;;;;;;;22.96;35.75;95445.81;4955684;28;20027;-76
2021/10/04 10:15:46;;;;;;;62.65;4.72;;;;;;;22.61;34.89;95440.59;4987226;28;20506;-76
2021/10/04 10:18:21;;;;;;;3.47;2.72;;;;;;;22.25;36.65;95436.41;4971886;28;20054;-76
2021/10/04 10:21:02;;;;;;;4.60;3.00;;;;;;;22.98;36.26;95443.75;4954593;28;20034;-76
2021/10/04 10:23:50;;;;;;;206.13;11.35;;;;;;;21.58;36.85;95424.53;4953974;28;20022;-75
2021/10/04 10:26:42;;;;;;;50.05;4.35;;;;;;;23.20;35.03;95423.53;4971761;28;20389;-75
2021/10/04 10:29:15;;;;;;;598.25;26.42;;;;;;;21.40;36.53;95419.34;4972358;28;20422;-75
2021/10/04 10:31:56;;;;;;;3.50;2.53;;;;;;;22.54;37.10;95427.53;4988285;28;20030;-76
2021/10/04 10:34:33;;;;;;;3.10;2.50;;;;;;;22.60;36.51;95423.94;4988408;28;20026;-76
2021/10/04 10:37:10;;;;;;;4.78;2.58;;;;;;;23.17;35.10;95410.81;4987401;28;20033;-76
2021/10/04 10:39:41;;;;;;;3.25;2.60;;;;;;;22.42;36.20;95416.19;4971445;28;20038;-75
2021/10/04 10:42:28;;;;;;;2.83;2.63;;;;;;;22.42;35.33;95418.81;4970751;28;20054;-76
2021/10/04 10:44:56;;;;;;;298.00;16.25;;;;;;;21.84;35.40;95410.09;4988073;28;20058;-73
2021/10/04 10:47:42;;;;;;;3.60;2.47;;;;;;;22.74;34.39;95403.38;4988884;28;20069;-76
2021/10/04 10:50:20;;;;;;;3.60;2.63;;;;;;;22.78;36.30;95406.38;4969835;28;20042;-76
2021/10/04 10:52:46;;;;;;;3.63;2.60;;;;;;;23.19;35.30;95395.50;4955751;28;20076;-77
2021/10/04 10:55:18;;;;;;;2.70;2.50;;;;;;;23.13;35.94;95399.09;4970383;28;20022;-76
2021/10/04 10:57:50;;;;;;;1421.03;65.80;;;;;;;22.89;35.09;95387.03;4987643;28;20042;-76
2021/10/04 11:00:41;;;;;;;95.25;8.93;;;;;;;22.67;34.26;95388.72;4988499;28;20027;-74
2021/10/04 11:03:16;;;;;;;243.00;11.43;;;;;;;22.87;35.44;95381.16;4949551;28;20121;-76
2021/10/04 11:05:42;;;;;;;4.95;3.08;;;;;;;22.53;34.55;95383.69;4970942;28;20026;-76
2021/10/04 11:08:13;;;;;;;484.02;22.30;;;;;;;22.60;34.42;95379.03;4987057;28;20029;-76
2021/10/04 11:14:04;;;;;;;37.58;3.92;;;;;;;22.23;34.17;95371.69;4988467;28;20095;-75
2021/10/04 11:16:41;;;;;;;4.95;2.67;;;;;;;22.40;34.07;95364.66;4986976;28;20034;-74
2021/10/04 11:19:07;;;;;;;3.35;2.80;;;;;;;22.50;34.19;95365.66;4955944;28;20035;-74
2021/10/04 11:21:32;;;;;;;3.70;2.67;;;;;;;22.57;34.54;95358.38;4954733;28;20470;-75
2021/10/04 11:24:03;;;;;;;92.80;6.07;;;;;;;23.04;32.89;95358.22;4958711;28;20062;-74
2021/10/04 11:26:29;;;;;;;4.05;2.85;;;;;;;22.15;32.72;95362.31;4944546;28;20084;-75
2021/10/04 11:28:59;;;;;;;479.25;20.73;;;;;;;21.49;32.80;95350.25;4952857;28;20039;-74
2021/10/04 11:31:32;;;;;;;4.50;2.88;;;;;;;22.08;32.82;95358.97;4953394;28;20119;-74
2021/10/04 11:33:59;;;;;;;5.88;2.85;;;;;;;22.76;32.51;95358.25;4986328;28;20034;-74
2021/10/04 11:36:28;;;;;;;4.55;2.75;;;;;;;22.12;33.24;95352.22;4970937;28;20089;-74
2021/10/04 11:38:59;;;;;;;3.05;2.45;;;;;;;22.18;33.76;95359.19;4987396;28;20096;-75
2021/10/04 11:41:29;;;;;;;25.75;4.00;;;;;;;22.07;32.51;95352.09;4969191;28;20422;-75
2021/10/04 11:43:59;;;;;;;2.90;2.53;;;;;;;22.33;32.51;95348.13;4987860;28;20061;-74
2021/10/04 11:46:27;;;;;;;123.75;6.05;;;;;;;22.21;32.22;95347.38;4956278;28;20035;-75
2021/10/04 11:49:12;;;;;;;160.50;11.35;;;;;;;22.42;31.86;95346.72;4991240;28;20498;-74
2021/10/04 11:51:45;;;;;;;3.33;2.90;;;;;;;22.02;31.85;95350.16;4990614;28;20066;-75
2021/10/04 11:54:12;;;;;;;875.70;43.45;;;;;;;22.24;31.06;95346.91;4990755;28;20034;-75
2021/10/04 11:56:39;;;;;;;97.40;5.53;;;;;;;22.42;32.04;95347.53;4974424;28;20253;-75
2021/10/04 11:59:04;;;;;;;2.17;1.90;;;;;;;21.95;30.82;95338.94;4956352;28;20061;-74
2021/10/04 12:01:35;;;;;;;369.70;17.23;;;;;;;22.18;30.22;95334.63;4990512;28;20039;-75
2021/10/04 12:04:02;;;;;;;386.95;32.80;;;;;;;22.09;30.02;95333.41;4971874;28;20476;-75
2021/10/04 12:06:28;;;;;;;1.70;1.48;;;;;;;22.11;28.69;95323.41;4973928;28;20467;-75
2021/10/04 12:08:54;;;;;;;36.42;3.22;;;;;;;22.81;28.83;95314.22;4989618;28;20033;-75
2021/10/04 12:11:19;;;;;;;172.15;10.02;;;;;;;22.87;30.71;95323.03;4990168;28;20034;-75
2021/10/04 12:13:45;;;;;;;38.17;2.85;;;;;;;22.46;28.85;95303.78;4991325;28;20026;-75
2021/10/04 12:16:12;;;;;;;3.33;1.92;;;;;;;22.67;30.54;95326.13;4955380;28;20026;-75
2021/10/04 12:18:42;;;;;;;2.35;2.03;;;;;;;23.21;30.72;95319.41;4973522;28;20038;-74
2021/10/04 12:21:27;;;;;;;3.25;2.13;;;;;;;22.60;30.68;95315.66;4989366;28;20054;-75
2021/10/04 12:24:15;;;;;;;2.70;2.00;;;;;;;22.06;29.72;95319.63;4990518;28;20039;-74
2021/10/04 12:27:02;;;;;;;64.65;3.90;;;;;;;22.60;27.85;95317.53;4973755;28;20022;-74
2021/10/04 12:29:34;;;;;;;1.77;1.67;;;;;;;22.75;27.49;95309.09;4982666;28;20117;-75
2021/10/04 12:32:46;;;;;;;43.30;3.05;;;;;;;22.99;26.56;95307.91;4973997;28;20189;-75
2021/10/04 12:35:25;;;;;;;2.72;1.50;;;;;;;22.60;26.09;95307.75;4924460;29;20126;-75
2021/10/04 12:37:55;;;;;;;659.97;26.25;;;;;;;22.63;25.57;95295.91;4912752;29;20486;-75
2021/10/04 12:40:31;;;;;;;2.45;1.10;;;;;;;22.33;25.74;95293.50;4952109;28;20133;-75
2021/10/04 12:43:11;;;;;;;52.38;3.17;;;;;;;22.48;26.50;95293.78;4972811;28;20026;-74
2021/10/04 12:45:37;;;;;;;85.13;3.88;;;;;;;22.57;26.85;95294.22;4990451;28;20073;-75
2021/10/04 12:48:04;;;;;;;1.75;1.55;;;;;;;22.40;26.85;95269.59;4972605;28;20647;-75
2021/10/04 12:50:32;;;;;;;26.50;2.38;;;;;;;22.23;26.49;95289.84;4989658;28;20023;-75
2021/10/04 12:53:17;;;;;;;2.53;1.38;;;;;;;22.62;28.12;95296.94;4973365;28;20125;-75
2021/10/04 12:56:03;;;;;;;3.03;1.45;;;;;;;22.68;28.17;95285.47;4988888;28;20037;-75
2021/10/04 12:58:30;;;;;;;1.27;1.17;;;;;;;22.48;28.00;95263.94;4972892;28;20031;-75
2021/10/04 13:01:11;;;;;;;1.77;1.67;;;;;;;23.10;27.27;95291.19;4972501;28;20030;-74
2021/10/04 13:04:09;;;;;;;474.77;21.20;;;;;;;22.79;27.19;95287.25;4971539;28;20269;-75
2021/10/04 13:06:37;;;;;;;158.70;7.87;;;;;;;22.43;27.31;95287.63;4986339;28;20050;-76
2021/10/04 13:09:03;;;;;;;1.80;1.50;;;;;;;22.50;27.34;95281.16;4938921;28;20085;-76
2021/10/04 13:11:29;;;;;;;70.40;4.10;;;;;;;23.19;28.01;95279.19;4956800;28;20018;-76
2021/10/04 13:13:54;;;;;;;2.25;1.40;;;;;;;23.44;26.72;95278.78;4955994;28;20030;-76
2021/10/04 13:16:20;;;;;;;4.60;1.23;;;;;;;23.21;26.95;95277.13;4971746;28;20041;-76
2021/10/04 13:18:46;;;;;;;2.60;1.30;;;;;;;23.13;26.43;95266.13;4972549;28;20053;-76
2021/10/04 13:21:11;;;;;;;1.30;1.20;;;;;;;22.56;26.81;95274.94;4971264;28;20026;-76
2021/10/04 13:23:37;;;;;;;2.13;1.40;;;;;;;22.33;26.56;95258.38;4972663;28;20034;-76
2021/10/04 13:26:07;;;;;;;1.35;1.25;;;;;;;22.56;25.98;95263.56;4954708;28;20030;-76
2021/10/04 13:28:34;;;;;;;58.85;3.45;;;;;;;22.44;26.75;95263.59;4956467;28;20030;-76
2021/10/04 13:30:59;;;;;;;15.05;1.83;;;;;;;22.55;28.04;95264.59;4971682;28;20057;-77
2021/10/04 13:33:25;;;;;;;1.73;1.58;;;;;;;22.92;26.23;95263.19;4955371;28;20090;-76
2021/10/04 13:35:50;;;;;;;1.50;1.33;;;;;;;23.14;27.52;95259.81;4972527;28;20034;-77
2021/10/04 13:38:16;;;;;;;1.58;1.45;;;;;;;23.03;26.93;95261.47;4988135;28;20047;-76
2021/10/04 13:40:42;;;;;;;1.27;1.02;;;;;;;22.78;26.52;95255.78;4989662;28;20030;-77
2021/10/04 13:43:07;;;;;;;3.35;1.42;;;;;;;23.05;27.26;95240.91;4954194;28;20080;-76
2021/10/04 13:45:35;;;;;;;74.70;4.97;;;;;;;23.27;26.81;95260.28;4972147;28;20496;-76
2021/10/04 13:48:00;;;;;;;891.33;39.22;;;;;;;23.16;27.89;95261.16;4971087;28;20077;-76
2021/10/04 13:50:26;;;;;;;3.25;1.75;;;;;;;23.10;28.12;95259.47;4972080;28;20037;-76
2021/10/04 13:52:51;;;;;;;917.58;35.88;;;;;;;22.69;28.87;95259.84;4971287;28;20026;-76
2021/10/04 13:55:17;;;;;;;67.25;3.78;;;;;;;22.74;29.51;95252.81;4987703;28;20025;-76
2021/10/04 13:57:43;;;;;;;5.38;1.90;;;;;;;23.02;29.37;95259.91;4955401;28;20037;-77
2021/10/04 14:00:10;;;;;;;507.40;21.10;;;;;;;22.51;30.31;95263.47;4987836;28;20034;-76
2021/10/04 14:02:35;;;;;;;56.33;3.85;;;;;;;22.56;30.01;95263.56;4955439;28;20637;-76
2021/10/04 14:05:03;;;;;;;2.67;1.70;;;;;;;22.42;31.02;95267.53;4987435;28;20030;-76
2021/10/04 14:07:29;;;;;;;322.70;22.83;;;;;;;22.33;30.93;95261.03;4971629;28;20019;-76
2021/10/04 14:09:54;;;;;;;8.60;2.75;;;;;;;22.40;30.08;95262.50;4970329;28;20415;-75
2021/10/04 14:12:19;;;;;;;1.90;1.80;;;;;;;22.48;30.29;95264.75;4970996;28;20488;-75
2021/10/04 14:14:45;;;;;;;2.20;1.75;;;;;;;22.57;30.07;95259.91;4971652;28;20555;-76
2021/10/04 14:17:11;;;;;;;1.55;1.45;;;;;;;22.43;30.41;95256.75;4987591;28;20100;-75
2021/10/04 14:19:37;;;;;;;352.10;14.15;;;;;;;22.27;30.44;95257.50;4955525;28;20539;-75
2021/10/04 14:22:03;;;;;;;2.92;1.80;;;;;;;22.25;30.90;95259.56;4987657;28;20110;-75
2021/10/04 14:24:28;;;;;;;2.10;1.67;;;;;;;22.30;30.74;95256.22;4971510;28;20033;-76
2021/10/04 14:26:54;;;;;;;2.40;1.50;;;;;;;22.51;30.34;95253.69;4970194;28;20030;-75
2021/10/04 14:29:19;;;;;;;2.72;1.33;;;;;;;22.33;30.42;95255.75;4971123;28;20363;-75
2021/10/04 14:31:45;;;;;;;18.55;2.40;;;;;;;22.47;30.30;95263.16;4970940;28;20029;-75
2021/10/04 14:34:10;;;;;;;37.10;3.30;;;;;;;22.53;30.08;95256.13;4970557;28;20037;-75
2021/10/04 14:36:36;;;;;;;1.95;1.85;;;;;;;22.35;30.56;95251.03;4970962;28;20053;-75
2021/10/04 14:39:01;;;;;;;1.90;1.70;;;;;;;22.34;30.91;95252.88;4969615;28;20506;-76
2021/10/04 14:41:27;;;;;;;2.72;1.70;;;;;;;22.33;31.05;95253.91;4971021;28;20027;-75
2021/10/04 14:43:52;;;;;;;2.38;1.60;;;;;;;22.21;31.09;95255.00;4986906;28;20437;-75
2021/10/04 14:46:18;;;;;;;11.50;2.03;;;;;;;22.27;31.13;95262.78;4971042;28;20162;-76
2021/10/04 14:48:43;;;;;;;106.13;6.25;;;;;;;21.97;35.65;95264.81;4969695;28;20037;-75
2021/10/04 14:51:09;;;;;;;4.30;2.00;;;;;;;21.90;36.87;95269.41;4970888;28;20427;-76
2021/10/04 14:53:34;;;;;;;4.15;2.10;;;;;;;21.78;37.89;95271.25;4970913;28;20034;-76
2021/10/04 14:56:01;;;;;;;6.35;2.30;;;;;;;21.69;38.45;95264.72;4953809;28;20026;-76
2021/10/04 14:58:26;;;;;;;806.08;48.13;;;;;;;21.48;38.89;95269.53;4970919;28;20076;-76
2021/10/04 15:00:52;;;;;;;3.92;1.77;;;;;;;21.34;40.16;95276.09;4969610;28;20034;-76
2021/10/04 15:03:17;;;;;;;133.00;6.97;;;;;;;21.34;39.97;95278.75;4988713;28;20038;-75
2021/10/04 15:05:43;;;;;;;5.30;2.20;;;;;;;21.37;40.08;95278.28;4969346;28;20034;-76
2021/10/04 15:08:08;;;;;;;1999.90;99.80;;;;;;;21.38;39.38;95285.13;4970743;28;20542;-75
2021/10/04 15:10:37;;;;;;;3.83;2.38;;;;;;;21.29;40.08;95281.25;4987710;28;20041;-75
2021/10/04 15:13:03;;;;;;;1999.90;211.70;;;;;;;21.03;40.34;95274.53;4955125;28;20029;-78
2021/10/04 15:15:28;;;;;;;3.53;3.20;;;;;;;20.99;40.35;95272.59;4954715;28;20042;-75
2021/10/04 15:17:54;;;;;;;5.30;3.92;;;;;;;20.66;41.63;95274.94;4969470;28;20034;-75
2021/10/04 15:20:19;;;;;;;3.92;3.60;;;;;;;20.50;42.49;95277.19;4956815;28;20030;-76
2021/10/04 15:22:44;;;;;;;4.75;3.42;;;;;;;20.59;42.74;95272.38;4973162;28;20022;-76
2021/10/04 15:25:10;;;;;;;1999.90;244.32;;;;;;;20.41;42.46;95278.53;4991809;28;20404;-75
2021/10/04 15:27:35;;;;;;;1999.90;286.25;;;;;;;20.18;43.07;95278.38;4957306;28;20030;-76
2021/10/04 15:30:01;;;;;;;1999.90;212.20;;;;;;;20.10;43.38;95288.41;4974281;28;20088;-78
2021/10/04 15:32:26;;;;;;;27.00;16.50;;;;;;;20.15;43.41;95285.91;4991892;28;20014;-76
2021/10/04 15:34:52;;;;;;;51.58;7.03;;;;;;;19.76;44.54;95277.47;4990506;28;20035;-76
2021/10/04 15:37:18;;;;;;;934.83;46.35;;;;;;;19.88;43.84;95285.41;4958729;28;20026;-73
2021/10/04 15:39:43;;;;;;;798.30;43.40;;;;;;;19.50;45.33;95293.50;4972555;28;20042;-75
2021/10/04 15:42:09;;;;;;;365.08;23.42;;;;;;;19.42;45.52;95306.94;4974588;28;20057;-76
2021/10/04 15:44:34;;;;;;;6.45;3.55;;;;;;;19.24;45.88;95298.97;4990113;28;20026;-76
2021/10/04 15:47:00;;;;;;;124.60;8.30;;;;;;;19.17;46.28;95303.50;4974304;28;20085;-77
2021/10/04 15:49:25;;;;;;;4.53;3.97;;;;;;;18.81;47.37;95301.53;4973620;28;20033;-76
2021/10/04 15:51:51;;;;;;;13.52;12.20;;;;;;;18.63;48.00;95306.69;4973120;28;20037;-76
2021/10/04 15:54:16;;;;;;;14.18;12.77;;;;;;;18.38;48.71;95294.31;4974312;28;20555;-76
2021/10/04 15:56:42;;;;;;;8.10;5.70;;;;;;;18.03;50.02;95308.78;4956420;28;20030;-76
2021/10/04 15:59:10;;;;;;;3.95;3.35;;;;;;;17.81;50.69;95305.66;4974180;28;20081;-77
2021/10/04 16:01:37;;;;;;;5.43;4.15;;;;;;;17.73;50.40;95302.44;4953021;28;20053;-77
2021/10/04 16:04:03;;;;;;;5.30;4.80;;;;;;;17.75;50.66;95321.38;4970646;28;20089;-77
2021/10/04 16:06:29;;;;;;;5.80;5.07;;;;;;;17.64;50.81;95319.38;4970894;28;20044;-77
2021/10/04 16:08:54;;;;;;;3.75;3.45;;;;;;;17.36;51.82;95311.75;4970928;28;20034;-77
2021/10/04 16:11:21;;;;;;;3.90;3.60;;;;;;;17.05;52.68;95299.28;4969297;28;20111;-77
2021/10/04 16:13:47;;;;;;;5.13;2.90;;;;;;;16.85;52.87;95311.56;4970472;28;20104;-77
2021/10/04 16:16:13;;;;;;;3.72;3.42;;;;;;;16.63;53.82;95316.16;4970545;28;20031;-76
2021/10/04 16:18:39;;;;;;;4.07;2.72;;;;;;;16.52;53.36;95306.25;4970414;28;20026;-75
2021/10/04 16:21:06;;;;;;;310.23;17.05;;;;;;;16.64;52.31;95314.34;4970274;28;20038;-74
2021/10/04 16:23:32;;;;;;;6.20;2.60;;;;;;;16.42;52.53;95308.44;4970146;28;20424;-74
2021/10/04 16:25:58;;;;;;;2.88;2.55;;;;;;;16.56;51.96;95320.59;4970139;28;20034;-74
2021/10/04 16:28:23;;;;;;;4.13;3.28;;;;;;;16.20;53.13;95318.22;4970958;28;20473;-74
2021/10/04 16:30:49;;;;;;;60.85;5.32;;;;;;;16.39;51.97;95328.94;4969685;28;20030;-74
2021/10/04 16:33:16;;;;;;;6.22;3.60;;;;;;;16.19;52.65;95326.25;4971381;28;20456;-74
2021/10/04 16:35:42;;;;;;;206.27;14.02;;;;;;;15.99;52.65;95314.94;4969998;28;20026;-77
2021/10/04 16:38:07;;;;;;;64.40;6.22;;;;;;;15.81;53.37;95324.09;4970062;28;20019;-77